• Join FlightAware (Why Join?)
  • Login
  • US Flag 
09:37PM EDT


 

Airport Tracker/Info


-or-


 

Live Flight TrackerFlight Track Log ✈ UAL5900 ✈ 19-Apr-2013 ✈ KTVC - KORD

Flight Track Log - Related Links

Times and Time Zones

All times are in EDT time to prevent confusion due to time zone crossing. See the UAL5900 flight status page for this flight to view local times or setup timezone preferences in your user account.

Time Position Orientation Groundspeed Altitude Reporting Facility
EDT Latitude Longitude Course Direction KTS MPH feet Rate Location/Type
04:18PM 44.7181 -85.6181 190° South 181 208 2,600  Level Chicago Center
04:19PM 44.6617 -85.5633 145° Southeast 245 282 5,400 2,520 Climbing Minneapolis Center
04:20PM 44.5967 -85.5672 182° South 241 277 8,100 2,580 Climbing Minneapolis Center
04:21PM 44.5107 -85.5788 187° South  Level FlightAware Approximate
04:21PM 44.5317 -85.5856 191° South 238 274 10,800  Level Minneapolis Center
04:22PM 44.4548 -85.5863 190° South  Level FlightAware Approximate
04:22PM 44.4561 -85.6056 191° South 270 311 11,900  Level Minneapolis Center
04:23PM 44.3994 -85.6002 190° South  Level FlightAware Approximate
04:23PM 44.3475 -85.6333 190° South 325 374 13,300  Level Minneapolis Center
04:24PM 44.2497 -85.6589 191° South 347 399 14,400 1,320 Climbing Minneapolis Center
04:25PM 44.1514 -85.6844 191° South 356 410 16,100 1,380 Climbing Minneapolis Center
04:26PM 44.0639 -85.7069 190° South 355 409 17,300 1,440 Climbing Minneapolis Center
04:27PM 43.9433 -85.7378 190° South 364 419 19,100 1,320 Climbing Minneapolis Center
04:28PM 43.8397 -85.7644 191° South 375 432 20,100 960 Climbing Minneapolis Center
04:29PM 43.7344 -85.7911 190° South 383 441 21,200 960 Climbing Minneapolis Center
04:30PM 43.6278 -85.8175 190° South 387 445 22,200 1,020 Climbing Minneapolis Center
04:31PM 43.5217 -85.8436 190° South 388 447 23,300 840 Climbing Minneapolis Center
04:32PM 43.4158 -85.8706 190° South 387 445 24,000 300 Climbing Minneapolis Center
04:33PM 43.3058 -85.8978 190° South 396 456 24,000  Level Minneapolis Center
04:34PM 43.1933 -85.9261 190° South 408 470 24,000  Level Chicago Center
04:35PM 43.0633 -85.9572 190° South 404 465 24,000  Level Chicago Center
04:37PM 42.9650 -85.9831 191° South 401 461 24,000 -240 Level Chicago Center
04:38PM 42.8397 -86.0142 190° South 383 441 23,600 -660 Descending Chicago Center
04:39PM 42.7364 -86.0444 192° South 380 437 22,700 -1,020 Descending Chicago Center
04:40PM 42.6700 -86.1433 228° Southwest 362 417 21,600 -1,020 Descending Chicago Center
04:41PM 42.6450 -86.2728 255° West 354 407 20,600 -960 Descending Chicago Center
04:42PM 42.6217 -86.3997 256° West 349 402 19,600 -1,020 Descending Chicago Center
04:43PM 42.5975 -86.5286 256° West 351 404 18,500 -1,260 Descending Chicago Center
04:44PM 42.5750 -86.6503 256° West 339 390 17,100 -2,340 Descending Chicago Center
04:45PM 42.5436 -86.7900 253° West 325 374 13,700 -2,940 Descending Chicago Center
04:46PM 42.5144 -86.8997 250° West 314 361 11,100 -1,800 Descending Chicago Center
04:47PM 42.4853 -87.0031 249° West 298 343 10,100 -780 Descending Chicago Center
04:48PM 42.4583 -87.0936 248° West 265 305 9,500 -540 Descending Chicago Center
04:49PM 42.4333 -87.1750 247° West 241 277 9,000 -300 Descending Chicago Center
04:50PM 42.3617 -87.2014 195° South 270 311 9,000  Level Chicago Center
04:51PM 42.2783 -87.1978 178° South 282 325 9,000  Level Chicago Center
04:52PM 42.1842 -87.1967 179° South 281 323 9,000  Level Chicago Center
04:53PM 42.1119 -87.1919 177° South 265 305 9,000  Level Chicago Center
04:54PM 42.0461 -87.1897 179° South 241 277 9,000 -240 Level Chicago Center
04:55PM 41.9917 -87.2133 198° South 227 261 8,500 -540 Descending Chicago Center
04:56PM 41.9806 -87.2833 258° West 196 226 8,000 -300 Descending Chicago Center
04:57PM 41.9811 -87.3494 271° West 149 171 8,000 -480 Level Chicago Center
04:58PM 41.9828 -87.4031 272° West 145 167 7,100 -720 Descending Chicago Center
04:59PM 41.9833 -87.4167 273° West 155 178 7,100 -120 Level Chicago TRACON
05:00PM 41.9833 -87.4833 270° West 160 184 7,000 -480 Descending Chicago TRACON
05:01PM 41.9833 -87.5333 270° West 151 174 6,200 -900 Descending Chicago TRACON
05:02PM 41.9833 -87.6000 270° West 151 174 5,300 -900 Descending Chicago TRACON
05:03PM 41.9833 -87.6500 270° West 143 165 4,400 -900 Descending Chicago TRACON
05:04PM 41.9833 -87.7000 270° West 137 158 3,600 -840 Descending Chicago TRACON
05:05PM 41.9833 -87.7500 270° West 136 157 2,800 -780 Descending Chicago TRACON
05:06PM 41.9833 -87.8000 270° West 119 137 2,100 -720 Descending Chicago TRACON
05:07PM 41.9833 -87.8500 270° West 115 132 1,400 -720 Descending Chicago TRACON